Time,TemperatureF,DewpointF,PressureIn,WindDirection,WindDirectionDegrees,WindSpeedMPH,WindSpeedGustMPH,Humidity,HourlyPrecipIn,Conditions,Clouds,dailyrainin,SoftwareType,DateUTC
2013-04-10 00:12:00,37.6,35.0,29.46,SSW,210,0.0,0.0,90,0.00,,,0.00,weatherlink.com 1.10,2013-04-09 23:12:00,
2013-04-10 00:26:00,37.6,35.0,29.46,SSW,210,0.0,0.0,90,0.00,,,0.00,weatherlink.com 1.10,2013-04-09 23:26:00,
2013-04-10 00:42:00,37.6,35.0,29.46,SSW,210,0.0,0.0,90,0.00,,,0.00,weatherlink.com 1.10,2013-04-09 23:42:00,
2013-04-10 00:57:00,37.8,35.0,29.46,SSW,210,0.0,0.0,90,0.00,,,0.00,weatherlink.com 1.10,2013-04-09 23:57:00,
2013-04-10 01:12:00,38.0,35.0,29.46,SSW,210,0.0,0.0,90,0.00,,,0.00,weatherlink.com 1.10,2013-04-10 00:12:00,
2013-04-10 01:27:00,38.2,36.0,29.46,SSW,210,0.0,0.0,90,0.00,,,0.00,weatherlink.com 1.10,2013-04-10 00:27:00,
2013-04-10 01:42:00,38.0,35.0,29.46,SSW,210,0.0,0.0,90,0.00,,,0.00,weatherlink.com 1.10,2013-04-10 00:42:00,
2013-04-10 01:57:00,38.1,36.0,29.46,SSW,210,0.0,0.0,90,0.00,,,0.00,weatherlink.com 1.10,2013-04-10 00:57:00,
2013-04-10 02:12:00,37.9,35.0,29.46,SSW,210,0.0,0.0,90,0.00,,,0.00,weatherlink.com 1.10,2013-04-10 01:12:00,
2013-04-10 02:27:00,38.0,36.0,29.45,SSW,210,0.0,0.0,91,0.00,,,0.00,weatherlink.com 1.10,2013-04-10 01:27:00,
2013-04-10 02:42:00,39.2,37.0,29.45,ENE,73,0.0,1.0,91,0.00,,,0.00,weatherlink.com 1.10,2013-04-10 01:42:00,
2013-04-10 02:57:00,39.6,37.0,29.45,East,89,0.0,1.0,91,0.00,,,0.00,weatherlink.com 1.10,2013-04-10 01:57:00,
2013-04-10 03:12:00,40.1,38.0,29.45,ESE,111,2.0,3.0,91,0.00,,,0.00,weatherlink.com 1.10,2013-04-10 02:12:00,
2013-04-10 03:27:00,40.5,38.0,29.45,ESE,105,1.0,2.0,90,0.00,,,0.00,weatherlink.com 1.10,2013-04-10 02:27:00,
2013-04-10 03:42:00,40.5,38.0,29.45,ESE,110,3.0,3.0,90,0.00,,,0.00,weatherlink.com 1.10,2013-04-10 02:42:00,
2013-04-10 03:57:00,40.8,38.0,29.45,ESE,109,1.0,4.0,91,0.00,,,0.00,weatherlink.com 1.10,2013-04-10 02:57:00,
2013-04-10 04:12:00,40.7,38.0,29.45,East,101,1.0,2.0,91,0.00,,,0.00,weatherlink.com 1.10,2013-04-10 03:12:00,
2013-04-10 04:27:00,40.7,38.0,29.45,ESE,105,2.0,3.0,91,0.00,,,0.00,weatherlink.com 1.10,2013-04-10 03:27:00,
2013-04-10 04:42:00,40.7,39.0,29.45,East,92,1.0,2.0,92,0.00,,,0.00,weatherlink.com 1.10,2013-04-10 03:42:00,
2013-04-10 04:57:00,40.7,39.0,29.45,East,101,2.0,2.0,92,0.00,,,0.00,weatherlink.com 1.10,2013-04-10 03:57:00,
2013-04-10 05:12:00,40.7,39.0,29.45,ESE,113,2.0,3.0,92,0.00,,,0.00,weatherlink.com 1.10,2013-04-10 04:12:00,
2013-04-10 05:27:00,40.8,39.0,29.45,ESE,103,2.0,4.0,92,0.00,,,0.00,weatherlink.com 1.10,2013-04-10 04:27:00,
2013-04-10 05:42:00,40.7,39.0,29.45,East,101,3.0,4.0,92,0.00,,,0.00,weatherlink.com 1.10,2013-04-10 04:42:00,
2013-04-10 05:57:00,40.6,39.0,29.44,ESE,102,3.0,4.0,92,0.00,,,0.00,weatherlink.com 1.10,2013-04-10 04:57:00,
2013-04-10 06:27:00,40.7,39.0,29.44,East,82,4.0,7.0,93,0.00,,,0.00,weatherlink.com 1.10,2013-04-10 05:27:00,
2013-04-10 06:42:00,40.9,39.0,29.44,East,81,3.0,6.0,93,0.00,,,0.00,weatherlink.com 1.10,2013-04-10 05:42:00,
2013-04-10 06:57:00,41.0,39.0,29.44,ESE,111,3.0,5.0,92,0.00,,,0.00,weatherlink.com 1.10,2013-04-10 05:57:00,
2013-04-10 07:12:00,41.2,39.0,29.44,ESE,103,3.0,5.0,92,0.00,,,0.00,weatherlink.com 1.10,2013-04-10 06:12:00,
2013-04-10 07:27:00,41.4,39.0,29.44,ESE,107,4.0,7.0,92,0.00,,,0.00,weatherlink.com 1.10,2013-04-10 06:27:00,
2013-04-10 07:42:00,41.5,39.0,29.44,East,91,3.0,7.0,92,0.00,,,0.00,weatherlink.com 1.10,2013-04-10 06:42:00,
2013-04-10 07:57:00,41.7,40.0,29.44,ESE,110,4.0,5.0,92,0.00,,,0.00,weatherlink.com 1.10,2013-04-10 06:57:00,
2013-04-10 08:12:00,41.9,40.0,29.43,SE,145,3.0,7.0,92,0.00,,,0.00,weatherlink.com 1.10,2013-04-10 07:12:00,
2013-04-10 08:27:00,42.1,40.0,29.43,East,82,5.0,7.0,92,0.00,,,0.00,weatherlink.com 1.10,2013-04-10 07:27:00,
2013-04-10 08:42:00,42.5,40.0,29.43,SE,134,2.0,6.0,92,0.00,,,0.00,weatherlink.com 1.10,2013-04-10 07:42:00,
2013-04-10 08:57:00,42.8,41.0,29.43,East,98,2.0,6.0,92,0.00,,,0.00,weatherlink.com 1.10,2013-04-10 07:57:00,
2013-04-10 09:13:00,42.8,41.0,29.43,SE,125,2.0,6.0,92,0.01,,,0.01,weatherlink.com 1.10,2013-04-10 08:13:00,
2013-04-10 09:28:00,42.8,41.0,29.43,East,96,3.0,4.0,93,0.02,,,0.02,weatherlink.com 1.10,2013-04-10 08:28:00,
2013-04-10 09:43:00,43.0,41.0,29.42,East,89,3.0,4.0,93,0.02,,,0.02,weatherlink.com 1.10,2013-04-10 08:43:00,
2013-04-10 09:58:00,43.4,42.0,29.42,ESE,117,0.0,4.0,94,0.02,,,0.02,weatherlink.com 1.10,2013-04-10 08:58:00,
2013-04-10 10:13:00,43.5,42.0,29.42,SE,129,1.0,4.0,93,0.01,,,0.02,weatherlink.com 1.10,2013-04-10 09:13:00,
2013-04-10 10:28:00,44.1,42.0,29.42,ENE,70,3.0,4.0,93,0.00,,,0.02,weatherlink.com 1.10,2013-04-10 09:28:00,
2013-04-10 10:43:00,44.5,43.0,29.42,East,97,3.0,6.0,93,0.00,,,0.02,weatherlink.com 1.10,2013-04-10 09:43:00,
2013-04-10 10:58:00,44.7,43.0,29.42,ENE,66,3.0,5.0,92,0.00,,,0.02,weatherlink.com 1.10,2013-04-10 09:58:00,
2013-04-10 11:13:00,44.9,43.0,29.41,East,86,2.0,5.0,91,0.00,,,0.02,weatherlink.com 1.10,2013-04-10 10:13:00,
2013-04-10 11:28:00,45.3,42.0,29.41,SE,133,1.0,5.0,89,0.00,,,0.02,weatherlink.com 1.10,2013-04-10 10:28:00,
2013-04-10 11:43:00,45.6,41.0,29.41,ESE,108,2.0,7.0,85,0.00,,,0.02,weatherlink.com 1.10,2013-04-10 10:43:00,
2013-04-10 11:58:00,46.0,41.0,29.40,SE,138,2.0,8.0,84,0.00,,,0.02,weatherlink.com 1.10,2013-04-10 10:58:00,
2013-04-10 12:13:00,46.1,41.0,29.40,ESE,118,2.0,10.0,83,0.00,,,0.02,weatherlink.com 1.10,2013-04-10 11:13:00,
2013-04-10 12:28:00,46.1,41.0,29.40,SE,127,4.0,6.0,83,0.00,,,0.02,weatherlink.com 1.10,2013-04-10 11:28:00,
2013-04-10 12:43:00,46.4,42.0,29.40,East,99,3.0,8.0,83,0.00,,,0.02,weatherlink.com 1.10,2013-04-10 11:43:00,
2013-04-10 12:58:00,46.9,42.0,29.39,SE,138,2.0,7.0,82,0.00,,,0.02,weatherlink.com 1.10,2013-04-10 11:58:00,
2013-04-10 13:13:00,46.9,42.0,29.39,East,82,2.0,6.0,84,0.00,,,0.02,weatherlink.com 1.10,2013-04-10 12:13:00,
2013-04-10 13:28:00,46.8,42.0,29.39,SE,129,3.0,5.0,84,0.00,,,0.02,weatherlink.com 1.10,2013-04-10 12:28:00,
2013-04-10 13:43:00,47.3,42.0,29.39,SSE,153,2.0,6.0,81,0.00,,,0.02,weatherlink.com 1.10,2013-04-10 12:43:00,
2013-04-10 13:58:00,47.3,42.0,29.39,ESE,105,3.0,8.0,81,0.00,,,0.02,weatherlink.com 1.10,2013-04-10 12:58:00,
2013-04-10 14:13:00,47.0,42.0,29.39,ESE,115,7.0,9.0,82,0.00,,,0.02,weatherlink.com 1.10,2013-04-10 13:13:00,
2013-04-10 14:28:00,46.4,42.0,29.38,SE,129,3.0,10.0,85,0.00,,,0.02,weatherlink.com 1.10,2013-04-10 13:28:00,
2013-04-10 14:43:00,45.9,43.0,29.38,ESE,111,1.0,10.0,88,0.00,,,0.02,weatherlink.com 1.10,2013-04-10 13:43:00,
2013-04-10 14:58:00,46.5,43.0,29.37,East,96,8.0,8.0,88,0.00,,,0.02,weatherlink.com 1.10,2013-04-10 13:58:00,
2013-04-10 15:13:00,46.9,44.0,29.37,SE,132,2.0,6.0,89,0.00,,,0.02,weatherlink.com 1.10,2013-04-10 14:13:00,
2013-04-10 15:29:00,47.7,44.0,29.36,ENE,70,3.0,8.0,86,0.00,,,0.02,weatherlink.com 1.10,2013-04-10 14:29:00,
2013-04-10 15:44:00,47.8,44.0,29.36,East,86,4.0,8.0,85,0.00,,,0.02,weatherlink.com 1.10,2013-04-10 14:44:00,
2013-04-10 15:59:00,48.2,44.0,29.36,ESE,111,3.0,11.0,85,0.00,,,0.02,weatherlink.com 1.10,2013-04-10 14:59:00,
2013-04-10 16:14:00,48.1,44.0,29.35,ENE,74,5.0,9.0,85,0.00,,,0.02,weatherlink.com 1.10,2013-04-10 15:14:00,
2013-04-10 16:29:00,48.7,44.0,29.35,East,82,3.0,10.0,83,0.00,,,0.02,weatherlink.com 1.10,2013-04-10 15:29:00,
2013-04-10 16:44:00,48.9,43.0,29.35,ESE,113,7.0,9.0,80,0.00,,,0.02,weatherlink.com 1.10,2013-04-10 15:44:00,
2013-04-10 16:59:00,48.1,43.0,29.35,ESE,102,4.0,8.0,82,0.00,,,0.02,weatherlink.com 1.10,2013-04-10 15:59:00,
2013-04-10 17:14:00,47.9,43.0,29.34,ESE,105,5.0,7.0,84,0.00,,,0.02,weatherlink.com 1.10,2013-04-10 16:14:00,
2013-04-10 17:29:00,48.4,44.0,29.34,SSW,208,1.0,6.0,84,0.00,,,0.02,weatherlink.com 1.10,2013-04-10 16:29:00,
2013-04-10 17:44:00,48.8,44.0,29.34,ESE,109,5.0,7.0,82,0.00,,,0.02,weatherlink.com 1.10,2013-04-10 16:44:00,
2013-04-10 17:59:00,47.8,43.0,29.34,SE,137,3.0,7.0,83,0.00,,,0.02,weatherlink.com 1.10,2013-04-10 16:59:00,
2013-04-10 18:14:00,47.5,43.0,29.34,ENE,70,2.0,6.0,84,0.00,,,0.02,weatherlink.com 1.10,2013-04-10 17:14:00,
2013-04-10 18:29:00,47.0,43.0,29.34,East,87,5.0,9.0,85,0.00,,,0.02,weatherlink.com 1.10,2013-04-10 17:29:00,
2013-04-10 18:44:00,46.3,43.0,29.34,ESE,105,4.0,10.0,87,0.00,,,0.02,weatherlink.com 1.10,2013-04-10 17:44:00,
2013-04-10 18:59:00,45.7,42.0,29.34,ESE,105,5.0,8.0,88,0.00,,,0.02,weatherlink.com 1.10,2013-04-10 17:59:00,
2013-04-10 19:14:00,45.3,42.0,29.34,East,96,4.0,7.0,88,0.00,,,0.02,weatherlink.com 1.10,2013-04-10 18:14:00,
2013-04-10 19:29:00,44.8,42.0,29.34,East,82,4.0,10.0,88,0.00,,,0.02,weatherlink.com 1.10,2013-04-10 18:29:00,
2013-04-10 19:44:00,44.7,41.0,29.34,ESE,113,5.0,9.0,88,0.00,,,0.02,weatherlink.com 1.10,2013-04-10 18:44:00,
2013-04-10 19:59:00,44.5,42.0,29.34,SSE,152,5.0,8.0,89,0.00,,,0.02,weatherlink.com 1.10,2013-04-10 18:59:00,
2013-04-10 20:14:00,44.4,41.0,29.34,SSE,149,1.0,8.0,89,0.00,,,0.02,weatherlink.com 1.10,2013-04-10 19:14:00,
2013-04-10 20:29:00,44.2,41.0,29.34,East,93,3.0,4.0,89,0.00,,,0.02,weatherlink.com 1.10,2013-04-10 19:29:00,
2013-04-10 20:44:00,44.1,41.0,29.34,SE,129,1.0,5.0,88,0.00,,,0.02,weatherlink.com 1.10,2013-04-10 19:44:00,
2013-04-10 20:59:00,43.9,41.0,29.34,SE,125,4.0,7.0,88,0.00,,,0.02,weatherlink.com 1.10,2013-04-10 19:59:00,
2013-04-10 21:14:00,43.7,40.0,29.34,ESE,105,3.0,5.0,88,0.00,,,0.02,weatherlink.com 1.10,2013-04-10 20:14:00,
2013-04-10 21:29:00,43.7,41.0,29.34,East,96,3.0,4.0,89,0.00,,,0.02,weatherlink.com 1.10,2013-04-10 20:29:00,
2013-04-10 21:44:00,43.6,41.0,29.33,ESE,114,3.0,5.0,89,0.00,,,0.02,weatherlink.com 1.10,2013-04-10 20:44:00,
2013-04-10 21:59:00,43.6,41.0,29.33,ESE,107,2.0,3.0,89,0.00,,,0.02,weatherlink.com 1.10,2013-04-10 20:59:00,
2013-04-10 22:14:00,43.5,41.0,29.33,East,99,3.0,3.0,89,0.00,,,0.02,weatherlink.com 1.10,2013-04-10 21:14:00,
2013-04-10 22:29:00,43.5,41.0,29.32,ESE,122,1.0,3.0,89,0.00,,,0.02,weatherlink.com 1.10,2013-04-10 21:29:00,
2013-04-10 22:44:00,43.7,40.0,29.32,ESE,105,2.0,4.0,88,0.00,,,0.02,weatherlink.com 1.10,2013-04-10 21:44:00,
2013-04-10 22:59:00,43.6,40.0,29.32,East,98,1.0,2.0,88,0.00,,,0.02,weatherlink.com 1.10,2013-04-10 21:59:00,
2013-04-10 23:14:00,43.3,40.0,29.31,ESE,108,2.0,2.0,89,0.00,,,0.02,weatherlink.com 1.10,2013-04-10 22:14:00,
2013-04-10 23:29:00,43.4,40.0,29.31,ENE,77,1.0,3.0,89,0.00,,,0.02,weatherlink.com 1.10,2013-04-10 22:29:00,
2013-04-10 23:44:00,43.4,40.0,29.31,ESE,119,1.0,2.0,89,0.00,,,0.02,weatherlink.com 1.10,2013-04-10 22:44:00,
2013-04-10 23:59:00,43.5,41.0,29.30,East,90,2.0,3.0,89,0.00,,,0.02,weatherlink.com 1.10,2013-04-10 22:59:00,